createdAt,value
2022-09-12T00:00:13.668Z,1012.12
2022-09-12T00:00:48.588Z,1012.12
2022-09-12T00:01:21.220Z,1012.02
2022-09-12T00:01:52.833Z,1012.02
2022-09-12T00:02:23.609Z,1012.02
2022-09-12T00:02:56.832Z,1012.02
2022-09-12T00:03:28.387Z,1012.02
2022-09-12T00:03:51.155Z,1012.02
2022-09-12T00:04:16.649Z,1012.02
2022-09-12T00:04:49.686Z,1012.02
2022-09-12T00:05:20.945Z,1012.12
2022-09-12T00:05:53.186Z,1012.12
2022-09-12T00:06:23.396Z,1012.02
2022-09-12T00:06:56.654Z,1012.02
2022-09-12T00:07:28.446Z,1011.82
2022-09-12T00:07:50.992Z,1011.92
2022-09-12T00:08:13.579Z,1011.92
2022-09-12T00:08:48.466Z,1011.92
2022-09-12T00:09:21.143Z,1011.92
2022-09-12T00:09:52.480Z,1011.92
2022-09-12T00:10:22.739Z,1011.92
2022-09-12T00:10:57.789Z,1011.92
2022-09-12T00:11:29.428Z,1011.92
2022-09-12T00:11:52.520Z,1011.92
2022-09-12T00:12:15.078Z,1011.92
2022-09-12T00:12:48.404Z,1011.92
2022-09-12T00:13:21.736Z,1012.33
2022-09-12T00:13:52.839Z,1012.33
2022-09-12T00:14:22.734Z,1012.22
2022-09-12T00:14:57.194Z,1012.22
2022-09-12T00:15:28.762Z,1011.92
2022-09-12T00:15:51.338Z,1012.02
2022-09-12T00:16:13.847Z,1012.02
2022-09-12T00:16:49.061Z,1012.02
2022-09-12T00:17:20.419Z,1011.82
2022-09-12T00:17:52.477Z,1011.82
2022-09-12T00:18:22.642Z,1012.02
2022-09-12T00:18:56.347Z,1012.02
2022-09-12T00:19:28.479Z,1012.22
2022-09-12T00:19:51.044Z,1011.92
2022-09-12T00:20:13.918Z,1011.92
2022-09-12T00:20:49.184Z,1011.92
2022-09-12T00:21:20.400Z,1011.92
2022-09-12T00:21:52.453Z,1011.92
2022-09-12T00:22:22.651Z,1011.92
2022-09-12T00:22:56.643Z,1011.92
2022-09-12T00:23:28.294Z,1012.12
2022-09-12T00:23:51.027Z,1012.02
2022-09-12T00:24:14.356Z,1012.02
2022-09-12T00:24:48.793Z,1012.02
2022-09-12T00:25:20.942Z,1011.92
2022-09-12T00:25:52.499Z,1011.92
2022-09-12T00:26:22.939Z,1012.02
2022-09-12T00:26:56.346Z,1012.02
2022-09-12T00:27:28.455Z,1012.02
2022-09-12T00:27:51.097Z,1012.12
2022-09-12T00:28:13.554Z,1012.12
2022-09-12T00:28:49.201Z,1012.12
2022-09-12T00:29:20.322Z,1011.92
2022-09-12T00:29:52.931Z,1011.92
2022-09-12T00:30:22.673Z,1011.82
2022-09-12T00:30:56.312Z,1011.82
2022-09-12T00:31:28.725Z,1011.92
2022-09-12T00:31:51.577Z,1011.92
2022-09-12T00:32:14.443Z,1011.92
2022-09-12T00:32:48.596Z,1011.92
2022-09-12T00:33:21.438Z,1012.02
2022-09-12T00:33:52.381Z,1012.02
2022-09-12T00:34:23.124Z,1011.92
2022-09-12T00:34:56.509Z,1011.92
2022-09-12T00:35:29.902Z,1011.92
2022-09-12T00:35:51.436Z,1012.02
2022-09-12T00:36:13.509Z,1012.02
2022-09-12T00:36:48.560Z,1012.02
2022-09-12T00:37:20.708Z,1011.92
2022-09-12T00:37:52.644Z,1011.92
2022-09-12T00:38:22.776Z,1011.82
2022-09-12T00:38:56.827Z,1011.82
2022-09-12T00:39:28.313Z,1011.92
2022-09-12T00:39:51.176Z,1012.02
2022-09-12T00:40:14.988Z,1012.02
2022-09-12T00:40:48.382Z,1012.02
2022-09-12T00:41:20.687Z,1011.92
2022-09-12T00:41:52.354Z,1011.92
2022-09-12T00:42:22.936Z,1011.82
2022-09-12T00:42:56.795Z,1011.82
2022-09-12T00:43:29.206Z,1011.72
2022-09-12T00:43:51.608Z,1011.82
2022-09-12T00:44:14.188Z,1011.82
2022-09-12T00:44:48.562Z,1011.82
2022-09-12T00:45:20.323Z,1011.92
2022-09-12T00:45:52.401Z,1011.92
2022-09-12T00:46:22.900Z,1011.82
2022-09-12T00:46:58.475Z,1011.51
2022-09-12T00:47:28.335Z,1011.51
2022-09-12T00:47:50.971Z,1011.82
2022-09-12T00:48:14.334Z,1011.82
2022-09-12T00:48:48.545Z,1011.82
2022-09-12T00:49:20.564Z,1011.92
2022-09-12T00:49:52.506Z,1011.92
2022-09-12T00:50:22.943Z,1011.82
2022-09-12T00:50:56.343Z,1011.82
2022-09-12T00:51:29.062Z,1011.72
2022-09-12T00:51:51.821Z,1011.92
2022-09-12T00:52:14.130Z,1011.92
2022-09-12T00:52:49.262Z,1011.92
2022-09-12T00:53:20.397Z,1011.82
2022-09-12T00:53:52.468Z,1011.82
2022-09-12T00:54:23.068Z,1011.92
2022-09-12T00:54:57.538Z,1011.92
2022-09-12T00:55:28.495Z,1011.92
2022-09-12T00:55:51.479Z,1011.72
2022-09-12T00:56:13.678Z,1011.72
2022-09-12T00:56:49.163Z,1011.72
2022-09-12T00:57:20.287Z,1011.82
2022-09-12T00:57:52.185Z,1011.82
2022-09-12T00:58:22.685Z,1011.72
2022-09-12T00:58:56.189Z,1011.72
2022-09-12T00:59:28.265Z,1011.82
2022-09-12T00:59:51.051Z,1011.82
2022-09-12T01:00:13.523Z,1011.82
2022-09-12T01:00:49.776Z,1011.82
2022-09-12T01:01:20.377Z,1011.82
2022-09-12T01:01:52.945Z,1011.82
2022-09-12T01:02:23.027Z,1011.92
2022-09-12T01:02:56.850Z,1011.92
2022-09-12T01:03:28.583Z,1011.82
2022-09-12T01:03:52.726Z,1012.02
2022-09-12T01:04:17.091Z,1012.02
2022-09-12T01:04:50.176Z,1012.02
2022-09-12T01:05:21.011Z,1011.82
2022-09-12T01:05:52.475Z,1011.82
2022-09-12T01:06:22.790Z,1011.72
2022-09-12T01:06:56.336Z,1011.72
2022-09-12T01:07:28.991Z,1011.82
2022-09-12T01:07:51.802Z,1011.92
2022-09-12T01:08:14.406Z,1011.92
2022-09-12T01:08:50.696Z,1011.92
2022-09-12T01:09:20.233Z,1011.92
2022-09-12T01:09:53.348Z,1011.92
2022-09-12T01:10:22.761Z,1011.72
2022-09-12T01:11:01.548Z,1011.82
2022-09-12T01:11:28.563Z,1011.82
2022-09-12T01:11:51.293Z,1011.61
2022-09-12T01:12:13.850Z,1011.61
2022-09-12T01:12:48.357Z,1011.61
2022-09-12T01:13:25.963Z,1011.82
2022-09-12T01:13:52.592Z,1011.82
2022-09-12T01:14:24.048Z,1011.82
2022-09-12T01:14:56.392Z,1011.82
2022-09-12T01:15:28.516Z,1011.72
2022-09-12T01:15:51.621Z,1011.72
2022-09-12T01:16:13.556Z,1011.72
2022-09-12T01:16:48.266Z,1011.72
2022-09-12T01:17:20.262Z,1011.72
2022-09-12T01:17:52.387Z,1011.72
2022-09-12T01:18:22.865Z,1011.61
2022-09-12T01:18:56.477Z,1011.61
2022-09-12T01:19:28.317Z,1011.72
2022-09-12T01:19:52.335Z,1011.51
2022-09-12T01:20:15.396Z,1011.51
2022-09-12T01:20:48.361Z,1011.51
2022-09-12T01:21:20.343Z,1011.72
2022-09-12T01:21:52.490Z,1011.72
2022-09-12T01:22:22.670Z,1011.61
2022-09-12T01:22:56.282Z,1011.61
2022-09-12T01:23:28.829Z,1011.51
2022-09-12T01:23:53.209Z,1011.72
2022-09-12T01:24:13.678Z,1011.72
2022-09-12T01:24:48.603Z,1011.72
2022-09-12T01:25:20.458Z,1011.72
2022-09-12T01:25:53.236Z,1011.72
2022-09-12T01:26:22.851Z,1011.41
2022-09-12T01:26:56.345Z,1011.41
2022-09-12T01:27:28.158Z,1011.51
2022-09-12T01:27:53.491Z,1011.51
2022-09-12T01:28:13.734Z,1011.51
2022-09-12T01:28:48.864Z,1011.51
2022-09-12T01:29:25.827Z,1011.72
2022-09-12T01:29:53.577Z,1011.72
2022-09-12T01:30:22.752Z,1011.82
2022-09-12T01:30:56.456Z,1011.82
2022-09-12T01:31:30.425Z,1011.41
2022-09-12T01:31:53.850Z,1011.61
2022-09-12T01:32:14.954Z,1011.61
2022-09-12T01:32:53.945Z,1011.61
2022-09-12T01:33:20.453Z,1011.51
2022-09-12T01:33:54.995Z,1011.51
2022-09-12T01:34:22.748Z,1011.51
2022-09-12T01:34:57.157Z,1011.51
2022-09-12T01:35:28.316Z,1011.51
2022-09-12T01:35:50.979Z,1011.41
2022-09-12T01:36:13.383Z,1011.41
2022-09-12T01:36:48.573Z,1011.41
2022-09-12T01:37:20.264Z,1011.61
2022-09-12T01:37:55.225Z,1011.61
2022-09-12T01:38:23.812Z,1011.51
2022-09-12T01:38:56.336Z,1011.51
2022-09-12T01:39:28.610Z,1011.61
2022-09-12T01:39:51.295Z,1011.51
2022-09-12T01:40:14.141Z,1011.51
2022-09-12T01:40:48.457Z,1011.51
2022-09-12T01:41:20.385Z,1011.61
2022-09-12T01:41:54.588Z,1011.61
2022-09-12T01:42:23.062Z,1011.51
2022-09-12T01:42:56.813Z,1011.51
2022-09-12T01:43:28.214Z,1011.41
2022-09-12T01:43:51.451Z,1011.51
2022-09-12T01:44:14.218Z,1011.51
2022-09-12T01:44:48.585Z,1011.51
2022-09-12T01:45:21.774Z,1011.51
2022-09-12T01:45:52.456Z,1011.51
2022-09-12T01:46:22.669Z,1011.51
2022-09-12T01:46:56.475Z,1011.51
2022-09-12T01:47:28.628Z,1011.24
2022-09-12T01:47:51.216Z,1011.31
2022-09-12T01:48:13.697Z,1011.31
2022-09-12T01:48:48.296Z,1011.31
2022-09-12T01:49:20.313Z,1011.31
2022-09-12T01:49:53.095Z,1011.31
2022-09-12T01:50:22.706Z,1011.31
2022-09-12T01:50:56.748Z,1011.31
2022-09-12T01:51:28.313Z,1011.41
2022-09-12T01:51:51.029Z,1011.31
2022-09-12T01:52:13.475Z,1011.31
2022-09-12T01:52:48.178Z,1011.31
2022-09-12T01:53:21.174Z,1011.51
2022-09-12T01:53:52.241Z,1011.51
2022-09-12T01:54:22.773Z,1011.31
2022-09-12T01:54:57.595Z,1011.31
2022-09-12T01:55:29.009Z,1011.24
2022-09-12T01:55:51.655Z,1011.41
2022-09-12T01:56:13.938Z,1011.41
2022-09-12T01:56:49.790Z,1011.41
2022-09-12T01:57:20.199Z,1011.51
2022-09-12T01:57:52.345Z,1011.51
2022-09-12T01:58:22.668Z,1011.31
2022-09-12T01:58:57.818Z,1011.31
2022-09-12T01:59:28.225Z,1011.24
2022-09-12T01:59:50.929Z,1011.14
2022-09-12T02:00:17.049Z,1011.14
2022-09-12T02:00:48.538Z,1011.14
2022-09-12T02:01:20.872Z,1011.41
2022-09-12T02:01:53.463Z,1011.41
2022-09-12T02:02:23.416Z,1011.41
2022-09-12T02:03:00.002Z,1011.41
2022-09-12T02:03:29.253Z,1011.31
2022-09-12T02:03:57.384Z,1011.31
2022-09-12T02:04:16.515Z,1011.31
2022-09-12T02:04:49.319Z,1011.31
2022-09-12T02:05:20.590Z,1011.51
2022-09-12T02:05:53.464Z,1011.51
2022-09-12T02:06:24.106Z,1011.14
2022-09-12T02:06:59.466Z,1011.14
2022-09-12T02:07:28.977Z,1011.24
2022-09-12T02:07:51.671Z,1011.24
2022-09-12T02:08:14.062Z,1011.24
2022-09-12T02:08:48.225Z,1011.24
2022-09-12T02:09:20.622Z,1011.14
2022-09-12T02:09:52.286Z,1011.14
2022-09-12T02:10:22.884Z,1011.24
2022-09-12T02:10:56.329Z,1011.24
2022-09-12T02:11:29.415Z,1011.31
2022-09-12T02:11:52.360Z,1011.14
2022-09-12T02:12:16.887Z,1011.14
2022-09-12T02:12:49.369Z,1011.14
2022-09-12T02:13:26.271Z,1011.14
2022-09-12T02:13:53.074Z,1011.14
2022-09-12T02:14:22.811Z,1011.04
2022-09-12T02:15:00.784Z,1011.04
2022-09-12T02:15:28.366Z,1011.24
2022-09-12T02:15:50.929Z,1011.24
2022-09-12T02:16:13.634Z,1011.24
2022-09-12T02:16:48.442Z,1011.24
2022-09-12T02:17:21.784Z,1011.24
2022-09-12T02:17:52.141Z,1011.24
2022-09-12T02:18:23.079Z,1011.41
2022-09-12T02:18:56.288Z,1011.41
2022-09-12T02:19:29.596Z,1011.14
2022-09-12T02:19:52.301Z,1011.14
2022-09-12T02:20:25.847Z,1011.14
2022-09-12T02:20:49.529Z,1011.14
2022-09-12T02:21:20.265Z,1011.14
2022-09-12T02:21:52.084Z,1011.14
2022-09-12T02:22:22.597Z,1011.14
2022-09-12T02:22:56.353Z,1011.14
2022-09-12T02:23:29.178Z,1011.24
2022-09-12T02:23:51.294Z,1011.24
2022-09-12T02:24:15.389Z,1011.24
2022-09-12T02:24:48.331Z,1011.24
2022-09-12T02:25:20.792Z,1011.31
2022-09-12T02:25:52.823Z,1011.31
2022-09-12T02:26:24.852Z,1011.31
2022-09-12T02:26:56.747Z,1011.31
2022-09-12T02:27:28.388Z,1011.31
2022-09-12T02:27:51.027Z,1011.24
2022-09-12T02:28:13.472Z,1011.24
2022-09-12T02:28:48.615Z,1011.24
2022-09-12T02:29:20.550Z,1011.31
2022-09-12T02:29:53.442Z,1011.31
2022-09-12T02:30:22.798Z,1011.24
2022-09-12T02:30:56.443Z,1011.24
2022-09-12T02:31:28.273Z,1011.14
2022-09-12T02:31:50.788Z,1011.24
2022-09-12T02:32:13.312Z,1011.24
2022-09-12T02:32:48.400Z,1011.24
2022-09-12T02:33:20.634Z,1011.24
2022-09-12T02:33:52.471Z,1011.24
2022-09-12T02:34:23.518Z,1011.14
2022-09-12T02:34:56.398Z,1011.14
2022-09-12T02:35:28.161Z,1011.31
2022-09-12T02:35:50.968Z,1011.41
2022-09-12T02:36:13.297Z,1011.41
2022-09-12T02:36:48.290Z,1011.41
2022-09-12T02:37:20.218Z,1011.31
2022-09-12T02:37:52.835Z,1011.31
2022-09-12T02:38:22.705Z,1011.14
2022-09-12T02:38:57.062Z,1011.14
2022-09-12T02:39:28.472Z,1011.04
2022-09-12T02:39:51.271Z,1011.31
2022-09-12T02:40:13.944Z,1011.31
2022-09-12T02:40:48.374Z,1011.31
2022-09-12T02:41:21.291Z,1011.14
2022-09-12T02:41:52.752Z,1011.14
2022-09-12T02:42:23.985Z,1011.24
2022-09-12T02:42:56.689Z,1011.24
2022-09-12T02:43:29.326Z,1011.24
2022-09-12T02:43:52.019Z,1011.31
2022-09-12T02:44:14.207Z,1011.31
2022-09-12T02:44:48.333Z,1011.31
2022-09-12T02:45:20.282Z,1011.24
2022-09-12T02:45:52.901Z,1011.24
2022-09-12T02:46:22.568Z,1011.04
2022-09-12T02:46:56.911Z,1011.04
2022-09-12T02:47:28.619Z,1011.24
2022-09-12T02:47:51.445Z,1011.24
2022-09-12T02:48:15.153Z,1011.24
2022-09-12T02:48:48.350Z,1011.24
2022-09-12T02:49:20.624Z,1011.24
2022-09-12T02:49:52.335Z,1011.24
2022-09-12T02:50:22.798Z,1011.14
2022-09-12T02:50:56.198Z,1011.14
2022-09-12T02:51:28.659Z,1011.14
2022-09-12T02:51:51.295Z,1011.14
2022-09-12T02:52:13.761Z,1011.14
2022-09-12T02:52:48.265Z,1011.14
2022-09-12T02:53:20.545Z,1011.04
2022-09-12T02:53:52.059Z,1011.04
2022-09-12T02:54:22.707Z,1011.14
2022-09-12T02:54:56.601Z,1011.14
2022-09-12T02:55:29.445Z,1011.24
2022-09-12T02:55:52.233Z,1011.14
2022-09-12T02:56:15.617Z,1011.14
2022-09-12T02:56:48.608Z,1011.14
2022-09-12T02:57:22.888Z,1011.14
2022-09-12T02:57:52.632Z,1011.14
2022-09-12T02:58:23.793Z,1011.14
2022-09-12T02:58:56.352Z,1011.14
2022-09-12T02:59:29.217Z,1011.14
2022-09-12T02:59:51.937Z,1011.24
2022-09-12T03:00:16.806Z,1011.24
2022-09-12T03:00:49.402Z,1011.24
2022-09-12T03:01:20.212Z,1010.94
2022-09-12T03:01:52.762Z,1010.94
2022-09-12T03:02:22.745Z,1011.31
2022-09-12T03:02:56.454Z,1011.31
2022-09-12T03:03:28.393Z,1011.14
2022-09-12T03:03:51.079Z,1011.14
2022-09-12T03:04:16.404Z,1011.14
2022-09-12T03:04:48.338Z,1011.14
2022-09-12T03:05:21.040Z,1011.04
2022-09-12T03:05:52.420Z,1011.04
2022-09-12T03:06:28.290Z,1011.14
2022-09-12T03:06:56.309Z,1011.14
2022-09-12T03:07:28.177Z,1010.94
2022-09-12T03:07:50.864Z,1011.04
2022-09-12T03:08:13.235Z,1011.04
2022-09-12T03:08:48.318Z,1011.04
2022-09-12T03:09:20.177Z,1011.04
2022-09-12T03:09:52.168Z,1011.04
2022-09-12T03:10:22.806Z,1011.24
2022-09-12T03:10:57.515Z,1011.24
2022-09-12T03:11:28.905Z,1011.14
2022-09-12T03:11:51.664Z,1011.14
2022-09-12T03:12:14.264Z,1011.14
2022-09-12T03:12:48.711Z,1011.14
2022-09-12T03:13:26.606Z,1011.04
2022-09-12T03:13:52.283Z,1011.04
2022-09-12T03:14:22.801Z,1011.14
2022-09-12T03:14:56.605Z,1011.14
2022-09-12T03:15:28.686Z,1011.24
2022-09-12T03:15:51.402Z,1011.24
2022-09-12T03:16:14.206Z,1011.24
2022-09-12T03:16:48.528Z,1011.24
2022-09-12T03:17:21.897Z,1011.14
2022-09-12T03:17:53.029Z,1011.14
2022-09-12T03:18:22.978Z,1011.14
2022-09-12T03:18:57.231Z,1011.14
2022-09-12T03:19:28.116Z,1011.14
2022-09-12T03:19:50.829Z,1011.04
2022-09-12T03:20:13.316Z,1011.04
2022-09-12T03:20:48.604Z,1011.04
2022-09-12T03:21:21.787Z,1011.04
2022-09-12T03:21:52.165Z,1011.04
2022-09-12T03:22:22.849Z,1011.04
2022-09-12T03:22:57.057Z,1011.04
2022-09-12T03:23:28.136Z,1010.94
2022-09-12T03:23:50.772Z,1010.94
2022-09-12T03:24:13.372Z,1010.94
2022-09-12T03:24:48.410Z,1010.94
2022-09-12T03:25:20.241Z,1010.94
2022-09-12T03:25:52.958Z,1010.94
2022-09-12T03:26:22.978Z,1010.73
2022-09-12T03:26:56.910Z,1010.73
2022-09-12T03:27:28.784Z,1010.94
2022-09-12T03:27:51.575Z,1010.73
2022-09-12T03:28:14.117Z,1010.73
2022-09-12T03:28:48.623Z,1010.73
2022-09-12T03:29:20.945Z,1010.94
2022-09-12T03:29:52.155Z,1010.94
2022-09-12T03:30:23.243Z,1011.04
2022-09-12T03:30:56.193Z,1011.04
2022-09-12T03:31:28.344Z,1010.84
2022-09-12T03:31:51.093Z,1010.84
2022-09-12T03:32:13.547Z,1010.84
2022-09-12T03:32:48.416Z,1010.84
2022-09-12T03:33:20.148Z,1011.04
2022-09-12T03:33:52.399Z,1011.04
2022-09-12T03:34:22.957Z,1010.94
2022-09-12T03:34:58.523Z,1010.94
2022-09-12T03:35:28.016Z,1010.94
2022-09-12T03:35:50.617Z,1010.94
2022-09-12T03:36:13.444Z,1010.94
2022-09-12T03:36:48.257Z,1010.94
2022-09-12T03:37:20.238Z,1010.84
2022-09-12T03:37:53.132Z,1010.84
2022-09-12T03:38:23.803Z,1011.04
2022-09-12T03:38:56.754Z,1011.04
2022-09-12T03:39:28.168Z,1010.94
2022-09-12T03:39:50.860Z,1011.04
2022-09-12T03:40:13.309Z,1011.04
2022-09-12T03:40:51.451Z,1011.04
2022-09-12T03:41:20.306Z,1010.94
2022-09-12T03:41:53.280Z,1010.94
2022-09-12T03:42:23.397Z,1010.94
2022-09-12T03:42:56.355Z,1010.94
2022-09-12T03:43:28.957Z,1011.14
2022-09-12T03:43:51.764Z,1011.04
2022-09-12T03:44:14.443Z,1011.04
2022-09-12T03:44:48.280Z,1011.04
2022-09-12T03:45:20.370Z,1010.84
2022-09-12T03:45:52.517Z,1010.84
2022-09-12T03:46:23.769Z,1011.04
2022-09-12T03:46:56.080Z,1011.04
2022-09-12T03:47:28.805Z,1010.94
2022-09-12T03:47:51.479Z,1010.84
2022-09-12T03:48:13.976Z,1010.84
2022-09-12T03:48:48.396Z,1010.84
2022-09-12T03:49:21.032Z,1010.94
2022-09-12T03:49:52.241Z,1010.94
2022-09-12T03:50:22.701Z,1010.94
2022-09-12T03:50:56.268Z,1010.94
2022-09-12T03:51:28.494Z,1011.14
2022-09-12T03:51:50.843Z,1010.94
2022-09-12T03:52:13.584Z,1010.94
2022-09-12T03:52:48.138Z,1010.94
2022-09-12T03:53:20.746Z,1010.94
2022-09-12T03:53:52.390Z,1010.94
2022-09-12T03:54:23.206Z,1010.84
2022-09-12T03:54:56.531Z,1010.84
2022-09-12T03:55:30.995Z,1011.14
2022-09-12T03:55:53.346Z,1011.04
2022-09-12T03:56:15.908Z,1011.04
2022-09-12T03:56:48.480Z,1011.04
2022-09-12T03:57:20.754Z,1011.14
2022-09-12T03:57:53.729Z,1011.14
2022-09-12T03:58:23.080Z,1011.04
2022-09-12T03:58:56.127Z,1011.04
2022-09-12T03:59:28.195Z,1011.04
2022-09-12T03:59:51.004Z,1011.14
2022-09-12T04:00:19.081Z,1011.14
2022-09-12T04:00:48.205Z,1011.14
2022-09-12T04:01:20.510Z,1011.04
2022-09-12T04:01:52.391Z,1011.04
2022-09-12T04:02:22.939Z,1010.94
2022-09-12T04:02:56.058Z,1010.94
2022-09-12T04:03:29.527Z,1010.94
2022-09-12T04:03:51.848Z,1010.94
2022-09-12T04:04:16.719Z,1010.94
2022-09-12T04:04:48.964Z,1010.94
2022-09-12T04:05:20.317Z,1010.84
2022-09-12T04:05:52.892Z,1010.84
2022-09-12T04:06:22.840Z,1010.94
2022-09-12T04:06:57.146Z,1010.94
2022-09-12T04:07:28.612Z,1011.04
2022-09-12T04:07:51.385Z,1011.04
2022-09-12T04:08:15.428Z,1011.04
2022-09-12T04:08:48.141Z,1011.04
2022-09-12T04:09:20.417Z,1010.94
2022-09-12T04:09:52.046Z,1010.94
2022-09-12T04:10:22.810Z,1010.94
2022-09-12T04:10:56.657Z,1010.94
2022-09-12T04:11:29.019Z,1011.04
2022-09-12T04:11:52.384Z,1010.94
2022-09-12T04:12:16.177Z,1010.94
2022-09-12T04:12:48.723Z,1010.94
2022-09-12T04:13:25.747Z,1010.94
2022-09-12T04:13:53.806Z,1010.94
2022-09-12T04:14:22.965Z,1011.14
2022-09-12T04:14:56.379Z,1011.14
2022-09-12T04:15:28.568Z,1011.14
2022-09-12T04:15:51.160Z,1011.04
2022-09-12T04:16:16.608Z,1011.04
2022-09-12T04:16:48.510Z,1011.04
2022-09-12T04:17:21.137Z,1011.04
2022-09-12T04:17:52.261Z,1011.04
2022-09-12T04:18:22.913Z,1011.04
2022-09-12T04:18:56.309Z,1011.04
2022-09-12T04:19:28.385Z,1010.94
2022-09-12T04:19:51.031Z,1011.14
2022-09-12T04:20:13.444Z,1011.14
2022-09-12T04:20:49.695Z,1010.94
2022-09-12T04:21:20.509Z,1010.94
2022-09-12T04:21:52.242Z,1010.94
2022-09-12T04:22:23.494Z,1011.04
2022-09-12T04:22:57.755Z,1011.04
2022-09-12T04:23:28.099Z,1011.04
2022-09-12T04:23:50.708Z,1011.04
2022-09-12T04:24:13.237Z,1011.04
2022-09-12T04:24:48.206Z,1011.04
2022-09-12T04:25:20.532Z,1010.94
2022-09-12T04:25:52.699Z,1010.94
2022-09-12T04:26:23.026Z,1011.24
2022-09-12T04:26:56.129Z,1011.24
2022-09-12T04:27:28.402Z,1010.84
2022-09-12T04:27:51.024Z,1010.94
2022-09-12T04:28:13.488Z,1010.94
2022-09-12T04:28:48.203Z,1010.94
2022-09-12T04:29:20.254Z,1010.94
2022-09-12T04:29:53.199Z,1010.94
2022-09-12T04:30:22.771Z,1011.04
2022-09-12T04:30:56.232Z,1011.04
2022-09-12T04:31:28.177Z,1010.94
2022-09-12T04:31:50.748Z,1010.84
2022-09-12T04:32:13.838Z,1010.84
2022-09-12T04:32:48.351Z,1010.84
2022-09-12T04:33:20.303Z,1010.94
2022-09-12T04:33:53.512Z,1010.94
2022-09-12T04:34:23.721Z,1011.04
2022-09-12T04:34:56.120Z,1011.04
2022-09-12T04:35:28.679Z,1011.04
2022-09-12T04:35:50.849Z,1010.94
2022-09-12T04:36:14.251Z,1010.94
2022-09-12T04:36:48.593Z,1010.94
2022-09-12T04:37:20.523Z,1011.14
2022-09-12T04:37:53.004Z,1011.14
2022-09-12T04:38:22.874Z,1011.04
2022-09-12T04:38:56.574Z,1011.04
2022-09-12T04:39:28.795Z,1010.84
2022-09-12T04:39:51.286Z,1010.84
2022-09-12T04:40:14.004Z,1010.84
2022-09-12T04:40:48.449Z,1010.84
2022-09-12T04:41:21.046Z,1010.94
2022-09-12T04:41:52.149Z,1010.94
2022-09-12T04:42:24.380Z,1011.04
2022-09-12T04:42:56.331Z,1011.04
2022-09-12T04:43:28.638Z,1011.04
2022-09-12T04:43:51.026Z,1011.14
2022-09-12T04:44:13.722Z,1011.14
2022-09-12T04:44:49.005Z,1011.14
2022-09-12T04:45:21.416Z,1011.24
2022-09-12T04:45:52.389Z,1011.24
2022-09-12T04:46:22.927Z,1011.04
2022-09-12T04:46:57.645Z,1011.04
2022-09-12T04:47:28.587Z,1010.94
2022-09-12T04:47:51.378Z,1010.94
2022-09-12T04:48:13.699Z,1010.94
2022-09-12T04:48:48.192Z,1010.94
2022-09-12T04:49:23.578Z,1011.04
2022-09-12T04:49:52.179Z,1011.04
2022-09-12T04:50:24.033Z,1010.84
2022-09-12T04:50:56.215Z,1010.84
2022-09-12T04:51:28.355Z,1011.14
2022-09-12T04:51:50.971Z,1010.84
2022-09-12T04:52:13.306Z,1010.84
2022-09-12T04:52:48.183Z,1010.84
2022-09-12T04:53:23.348Z,1010.94
2022-09-12T04:53:53.250Z,1010.94
2022-09-12T04:54:23.027Z,1011.04
2022-09-12T04:54:56.607Z,1011.04
2022-09-12T04:55:28.979Z,1011.14
2022-09-12T04:55:51.859Z,1011.04
2022-09-12T04:56:14.524Z,1011.04
2022-09-12T04:56:48.205Z,1011.04
2022-09-12T04:57:23.261Z,1010.84
2022-09-12T04:57:52.478Z,1010.84
2022-09-12T04:58:23.917Z,1010.84
2022-09-12T04:58:56.714Z,1010.84
2022-09-12T04:59:28.998Z,1011.04
2022-09-12T04:59:51.626Z,1011.04
2022-09-12T05:00:14.127Z,1011.04
2022-09-12T05:00:49.427Z,1011.04
2022-09-12T05:01:20.707Z,1010.84
2022-09-12T05:01:52.564Z,1010.84
2022-09-12T05:02:24.435Z,1010.84
2022-09-12T05:02:56.214Z,1010.84
2022-09-12T05:03:28.236Z,1010.94
2022-09-12T05:03:50.842Z,1010.84
2022-09-12T05:04:16.766Z,1010.84
2022-09-12T05:04:48.718Z,1010.84
2022-09-12T05:05:20.880Z,1010.94
2022-09-12T05:05:55.852Z,1010.94
2022-09-12T05:06:26.405Z,1010.84
2022-09-12T05:06:56.620Z,1010.84
2022-09-12T05:07:28.479Z,1011.04
2022-09-12T05:07:51.195Z,1010.94
2022-09-12T05:08:13.834Z,1010.94
2022-09-12T05:08:49.337Z,1010.94
2022-09-12T05:09:20.102Z,1010.94
2022-09-12T05:09:52.442Z,1010.94
2022-09-12T05:10:26.961Z,1010.84
2022-09-12T05:10:56.817Z,1010.84
2022-09-12T05:11:46.789Z,1011.14
2022-09-12T05:12:16.671Z,1010.94
2022-09-12T05:12:48.168Z,1010.94
2022-09-12T05:13:25.712Z,1010.84
2022-09-12T05:13:52.462Z,1010.84
2022-09-12T05:14:22.737Z,1010.84
2022-09-12T05:14:56.319Z,1010.84
2022-09-12T05:15:28.290Z,1010.84
2022-09-12T05:15:50.918Z,1010.73
2022-09-12T05:16:13.338Z,1010.73
2022-09-12T05:16:49.588Z,1010.73
2022-09-12T05:17:20.101Z,1011.04
2022-09-12T05:17:52.301Z,1011.04
2022-09-12T05:18:22.741Z,1010.73
2022-09-12T05:18:56.228Z,1010.73
2022-09-12T05:19:28.581Z,1010.73
2022-09-12T05:19:51.526Z,1010.94
2022-09-12T05:20:13.817Z,1010.94
2022-09-12T05:20:48.723Z,1010.94
2022-09-12T05:21:20.423Z,1010.73
2022-09-12T05:21:52.075Z,1010.73
2022-09-12T05:22:22.709Z,1010.94
2022-09-12T05:22:56.196Z,1010.94
2022-09-12T05:23:28.517Z,1010.84
2022-09-12T05:23:50.927Z,1010.84
2022-09-12T05:24:15.073Z,1010.84
2022-09-12T05:24:53.999Z,1010.84
2022-09-12T05:25:20.189Z,1010.94
2022-09-12T05:25:52.328Z,1010.94
2022-09-12T05:26:22.920Z,1010.73
2022-09-12T05:26:56.110Z,1010.73
2022-09-12T05:27:28.354Z,1010.73
2022-09-12T05:27:50.973Z,1010.73
2022-09-12T05:28:14.985Z,1010.73
2022-09-12T05:28:48.131Z,1010.73
2022-09-12T05:29:20.267Z,1010.84
2022-09-12T05:29:52.204Z,1010.84
2022-09-12T05:30:22.810Z,1010.73
2022-09-12T05:30:56.268Z,1010.73
2022-09-12T05:31:29.313Z,1010.84
2022-09-12T05:31:51.458Z,1010.94
2022-09-12T05:32:13.826Z,1010.94
2022-09-12T05:32:48.670Z,1010.94
2022-09-12T05:33:24.928Z,1010.63
2022-09-12T05:33:52.303Z,1010.63
2022-09-12T05:34:22.955Z,1010.73
2022-09-12T05:34:56.408Z,1010.73
2022-09-12T05:35:30.343Z,1010.94
2022-09-12T05:35:51.201Z,1010.73
2022-09-12T05:36:13.688Z,1010.73
2022-09-12T05:36:48.229Z,1010.73
2022-09-12T05:37:20.153Z,1010.94
2022-09-12T05:37:52.536Z,1010.94
2022-09-12T05:38:22.704Z,1010.73
2022-09-12T05:38:56.045Z,1010.73
2022-09-12T05:39:30.658Z,1010.94
2022-09-12T05:39:51.350Z,1010.73
2022-09-12T05:40:13.685Z,1010.73
2022-09-12T05:40:48.235Z,1010.73
2022-09-12T05:41:24.724Z,1010.63
2022-09-12T05:41:52.209Z,1010.63
2022-09-12T05:42:24.250Z,1010.94
2022-09-12T05:42:56.588Z,1010.94
2022-09-12T05:43:31.054Z,1010.73
2022-09-12T05:43:50.931Z,1010.94
2022-09-12T05:44:13.250Z,1010.94
2022-09-12T05:44:48.444Z,1010.94
2022-09-12T05:45:20.120Z,1010.63
2022-09-12T05:45:53.757Z,1010.63
2022-09-12T05:46:22.857Z,1010.73
2022-09-12T05:46:56.072Z,1010.73
2022-09-12T05:47:28.124Z,1010.63
2022-09-12T05:47:51.037Z,1010.73
2022-09-12T05:48:13.380Z,1010.73
2022-09-12T05:48:51.446Z,1010.73
2022-09-12T05:49:20.275Z,1010.73
2022-09-12T05:49:57.697Z,1010.73
2022-09-12T05:50:24.232Z,1010.73
2022-09-12T05:50:56.334Z,1010.73
2022-09-12T05:51:28.286Z,1010.73
2022-09-12T05:51:50.996Z,1010.94
2022-09-12T05:52:13.515Z,1010.94
2022-09-12T05:52:48.425Z,1010.94
2022-09-12T05:53:20.185Z,1010.73
2022-09-12T05:53:52.038Z,1010.73
2022-09-12T05:54:22.711Z,1010.73
2022-09-12T05:54:56.412Z,1010.73
2022-09-12T05:55:28.173Z,1010.84
2022-09-12T05:55:51.258Z,1010.84
2022-09-12T05:56:13.650Z,1010.84
2022-09-12T05:56:48.101Z,1010.84
2022-09-12T05:57:20.021Z,1010.73
2022-09-12T05:57:52.551Z,1010.73
2022-09-12T05:58:22.856Z,1010.73
2022-09-12T05:58:56.330Z,1010.73
2022-09-12T05:59:28.170Z,1011.04
2022-09-12T05:59:51.425Z,1010.84
2022-09-12T06:00:34.187Z,1010.84
2022-09-12T06:00:56.214Z,1010.94
2022-09-12T06:01:18.671Z,1010.94
2022-09-12T06:01:52.238Z,1010.94
2022-09-12T06:02:23.039Z,1010.84
2022-09-12T06:02:56.148Z,1010.84
2022-09-12T06:03:28.711Z,1010.63